KBUR/BUR METAR and TAF weather

Enter ICAO airport designator
Station Type Date Time Source
KBUR METAR 2024/04/18 07:53 UTC NOAA

KBUR 180753Z 10004KT 10SM CLR 16/09 A2998 RMK AO2 SLP140 T01560089 402610117


Station Type Date Time Source
KBUR Decoded METAR 2024/04/18 07:53 UTC NOAA

BURBANK-GLENDALE-PASADENA, CA, United States (KBUR) 34-12N 118-22W 217M
Apr 18, 2024 - 03:53 AM EDT / 2024.04.18 0753 UTC
Wind: from the E (100 degrees) at 5 MPH (4 KT):0
Visibility: 10 mile(s):0
Sky conditions: clear
Temperature: 60.1 F (15.6 C)
Dew Point: 48.0 F (8.9 C)
Relative Humidity: 64%
Pressure (altimeter): 29.98 in. Hg (1015 hPa)
ob: KBUR 180753Z 10004KT 10SM CLR 16/09 A2998 RMK AO2 SLP140 T01560089 402610117
cycle: 8

Station Type Date Time Source
KBUR TAF 2024/04/18 06:45 UTC NOAA